Time;durP1;ratioP1;P1;durP2;ratioP2;P2;SDS_P1;SDS_P2;PMS_P1;PMS_P2;Temp;Humidity;BMP_temperature;BMP_pressure;BME280_temperature;BME280_humidity;BME280_pressure;Samples;Min_cycle;Max_cycle;Signal;HPM_P1;HPM_P2
2023/09/10 00:00:52;;;;;;;;;;;;;;;24.87;47.76;101243.31;7395439;19;1786;-65
2023/09/10 00:03:20;;;;;;;;;;;;;;;24.82;47.74;101237.53;7393215;19;1834;-65
2023/09/10 00:05:48;;;;;;;;;;;;;;;24.80;47.91;101229.56;7393874;19;1845;-65
2023/09/10 00:08:17;;;;;;;;;;;;;;;24.75;47.83;101239.16;7383657;19;1805;-65
2023/09/10 00:10:45;;;;;;;;;;;;;;;24.74;47.83;101240.19;7395158;19;1657;-65
2023/09/10 00:13:13;;;;;;;;;;;;;;;24.78;48.04;101244.28;7395542;19;1829;-65
2023/09/10 00:15:44;;;;;;;;;;;;;;;24.79;47.97;101240.56;7396868;19;1059;-64
2023/09/10 00:18:12;;;;;;;;;;;;;;;24.77;47.90;101239.84;7403547;19;1719;-65
2023/09/10 00:20:41;;;;;;;;;;;;;;;24.84;47.83;101237.38;7403332;19;1925;-65
2023/09/10 00:23:09;;;;;;;;;;;;;;;24.87;47.90;101251.41;7403053;19;1779;-65
2023/09/10 00:25:37;;;;;;;;;;;;;;;24.84;47.87;101249.03;7403214;19;1863;-64
2023/09/10 00:28:06;;;;;;;;;;;;;;;24.88;47.88;101247.69;7403627;19;1818;-64
2023/09/10 00:30:34;;;;;;;;;;;;;;;24.81;47.74;101247.50;7403323;19;1790;-65
2023/09/10 00:33:06;;;;;;;;;;;;;;;24.82;47.92;101253.75;7399489;19;1716;-65
2023/09/10 00:35:34;;;;;;;;;;;;;;;24.74;47.93;101241.03;7402159;19;1726;-65
2023/09/10 00:38:03;;;;;;;;;;;;;;;24.79;47.84;101248.69;7403867;19;1691;-65
2023/09/10 00:40:31;;;;;;;;;;;;;;;24.76;48.21;101243.59;7404797;19;1510;-65
2023/09/10 00:42:59;;;;;;;;;;;;;;;24.81;47.91;101250.22;7401157;19;1434;-65
2023/09/10 00:45:28;;;;;;;;;;;;;;;24.80;47.87;101248.50;7405045;19;1229;-65
2023/09/10 00:47:56;;;;;;;;;;;;;;;24.80;47.74;101261.19;7397714;19;3259;-36
2023/09/10 00:50:27;;;;;;;;;;;;;;;24.86;47.79;101263.22;7402911;19;1482;-36
2023/09/10 00:52:57;;;;;;;;;;;;;;;24.76;47.88;101251.69;7402546;19;1370;-36
2023/09/10 00:55:26;;;;;;;;;;;;;;;24.71;48.15;101256.72;7402129;19;1874;-36
2023/09/10 00:57:55;;;;;;;;;;;;;;;24.73;47.88;101258.28;7401805;19;1483;-36
2023/09/10 01:00:24;;;;;;;;;;;;;;;24.74;48.02;101248.31;7401727;19;1866;-36
2023/09/10 01:02:52;;;;;;;;;;;;;;;24.80;47.96;101258.47;7401005;19;1600;-36
2023/09/10 01:05:20;;;;;;;;;;;;;;;24.77;47.98;101242.56;7400777;19;1930;-36
2023/09/10 01:07:52;;;;;;;;;;;;;;;24.76;47.76;101240.88;7383754;19;1870;-37
2023/09/10 01:10:20;;;;;;;;;;;;;;;24.77;47.93;101243.44;7402183;19;1822;-37
2023/09/10 01:12:53;;;;;;;;;;;;;;;24.84;47.96;101254.44;7402052;19;1584;-36
2023/09/10 01:15:24;;;;;;;;;;;;;;;24.73;48.11;101266.41;7402483;19;1950;-36
2023/09/10 01:17:56;;;;;;;;;;;;;;;24.70;48.00;101269.41;7400815;19;1865;-36
2023/09/10 01:20:35;;;;;;;;;;;;;;;24.79;48.02;101264.91;7401030;19;1826;-37
2023/09/10 01:23:10;;;;;;;;;;;;;;;24.83;48.01;101268.13;7401023;19;1554;-36
2023/09/10 01:25:41;;;;;;;;;;;;;;;24.72;48.24;101261.97;7400629;19;1463;-36
2023/09/10 01:28:09;;;;;;;;;;;;;;;24.71;48.15;101256.72;7396719;19;2049;-36
2023/09/10 01:30:38;;;;;;;;;;;;;;;24.77;48.09;101265.06;7399887;19;1814;-36
2023/09/10 01:33:11;;;;;;;;;;;;;;;24.76;48.10;101243.59;7399842;19;1719;-37
2023/09/10 01:35:44;;;;;;;;;;;;;;;24.72;48.14;101266.56;7400142;19;1417;-36
2023/09/10 01:38:16;;;;;;;;;;;;;;;24.73;48.20;101261.00;7400791;19;1866;-37
2023/09/10 01:40:48;;;;;;;;;;;;;;;24.77;48.01;101259.66;7399653;19;1919;-37
2023/09/10 01:43:17;;;;;;;;;;;;;;;24.78;48.12;101255.94;7399639;19;1818;-36
2023/09/10 01:45:45;;;;;;;;;;;;;;;24.81;47.82;101241.25;7401151;19;1402;-37
2023/09/10 01:48:14;;;;;;;;;;;;;;;24.80;48.07;101255.78;7396699;19;1945;-36
2023/09/10 01:50:43;;;;;;;;;;;;;;;24.78;47.85;101255.09;7399494;19;1616;-36
2023/09/10 01:53:12;;;;;;;;;;;;;;;24.83;48.04;101266.28;7401034;19;1120;-36
2023/09/10 01:55:40;;;;;;;;;;;;;;;24.75;48.25;101277.03;7400100;19;1721;-36
2023/09/10 01:58:12;;;;;;;;;;;;;;;24.75;48.24;101261.69;7399865;19;1937;-36
2023/09/10 02:00:41;;;;;;;;;;;;;;;24.74;48.18;101242.91;7399673;19;1756;-36
2023/09/10 02:03:09;;;;;;;;;;;;;;;24.72;48.03;101236.81;7399543;19;1822;-37
2023/09/10 02:05:37;;;;;;;;;;;;;;;24.70;48.21;101255.88;7398767;19;1628;-37
2023/09/10 02:08:06;;;;;;;;;;;;;;;24.69;48.13;101247.94;7382118;19;1862;-37
2023/09/10 02:10:35;;;;;;;;;;;;;;;24.75;48.09;101250.00;7400290;19;1514;-38
2023/09/10 02:13:01;;;;;;;;;;;;;;;24.75;48.11;101266.22;7400177;19;1850;-36
2023/09/10 02:15:32;;;;;;;;;;;;;;;24.71;48.15;101264.84;7400742;19;1498;-36
2023/09/10 02:18:00;;;;;;;;;;;;;;;24.72;48.14;101250.31;7399073;19;2153;-36
2023/09/10 02:20:28;;;;;;;;;;;;;;;24.71;48.26;101257.59;7398766;19;1906;-36
2023/09/10 02:22:56;;;;;;;;;;;;;;;24.73;48.46;101260.13;7398206;19;1730;-36
2023/09/10 02:25:25;;;;;;;;;;;;;;;24.63;47.99;101256.69;7398022;19;1460;-36
2023/09/10 02:27:53;;;;;;;;;;;;;;;24.65;48.17;101255.53;7397447;19;1850;-36
2023/09/10 02:30:22;;;;;;;;;;;;;;;24.68;48.21;101252.50;7397384;19;1511;-36
2023/09/10 02:32:52;;;;;;;;;;;;;;;24.68;48.07;101254.38;7398062;19;1475;-36
2023/09/10 02:35:21;;;;;;;;;;;;;;;24.72;48.04;101266.56;7398350;19;1398;-36
2023/09/10 02:37:49;;;;;;;;;;;;;;;24.73;48.22;101255.59;7398128;19;1508;-36
2023/09/10 02:40:18;;;;;;;;;;;;;;;24.70;48.41;101273.97;7394679;19;2345;-36
2023/09/10 02:42:46;;;;;;;;;;;;;;;24.69;48.13;101264.16;7398709;19;1831;-36
2023/09/10 02:45:15;;;;;;;;;;;;;;;24.76;48.14;101278.75;7399475;19;1743;-36
2023/09/10 02:47:44;;;;;;;;;;;;;;;24.75;48.24;101261.69;7396758;19;1845;-36
2023/09/10 02:50:15;;;;;;;;;;;;;;;24.67;48.36;101263.47;7398813;19;1866;-36
2023/09/10 02:52:43;;;;;;;;;;;;;;;24.69;48.40;101256.03;7397998;19;1866;-36
2023/09/10 02:55:11;;;;;;;;;;;;;;;24.65;48.25;101265.50;7397396;19;1838;-36
2023/09/10 02:57:39;;;;;;;;;;;;;;;24.69;48.33;101272.28;7397249;19;1855;-36
2023/09/10 03:00:11;;;;;;;;;;;;;;;24.64;48.36;101274.63;7397332;19;2453;-36
2023/09/10 03:02:39;;;;;;;;;;;;;;;24.63;48.46;101272.91;7396573;19;1515;-36
2023/09/10 03:05:08;;;;;;;;;;;;;;;24.67;48.36;101268.88;7397021;19;1823;-36
2023/09/10 03:07:39;;;;;;;;;;;;;;;24.68;48.26;101271.44;7388058;19;1834;-36
2023/09/10 03:10:10;;;;;;;;;;;;;;;24.66;48.41;101267.19;7397578;19;1752;-36
2023/09/10 03:12:38;;;;;;;;;;;;;;;24.71;48.11;101264.84;7396398;19;1638;-37
2023/09/10 03:15:07;;;;;;;;;;;;;;;24.64;48.21;101264.66;7397301;19;1483;-36
2023/09/10 03:17:35;;;;;;;;;;;;;;;24.65;48.35;101285.28;7396028;19;1834;-36
2023/09/10 03:20:05;;;;;;;;;;;;;;;24.69;48.18;101288.50;7397429;19;1637;-36
2023/09/10 03:22:33;;;;;;;;;;;;;;;24.69;48.38;101288.50;7396733;19;1830;-36
2023/09/10 03:25:05;;;;;;;;;;;;;;;24.63;48.35;101292.72;7395972;19;1819;-36
2023/09/10 03:27:33;;;;;;;;;;;;;;;24.61;48.36;101270.38;7394035;19;1869;-36
2023/09/10 03:30:01;;;;;;;;;;;;;;;24.60;48.56;101269.53;7395929;19;1644;-37
2023/09/10 03:32:30;;;;;;;;;;;;;;;24.68;48.30;101300.34;7394861;19;1485;-36
2023/09/10 03:34:58;;;;;;;;;;;;;;;24.60;48.11;101283.06;7396029;19;1455;-36
2023/09/10 03:37:26;;;;;;;;;;;;;;;24.67;48.33;101283.28;7395412;19;1648;-36
2023/09/10 03:39:54;;;;;;;;;;;;;;;24.64;48.26;101280.03;7395864;19;1586;-36
2023/09/10 03:42:25;;;;;;;;;;;;;;;24.67;48.30;101279.69;7396977;19;1495;-36
2023/09/10 03:44:54;;;;;;;;;;;;;;;24.68;48.20;101281.41;7395366;19;1822;-36
2023/09/10 03:47:22;;;;;;;;;;;;;;;24.70;48.14;101280.22;7394842;19;1845;-36
2023/09/10 03:49:50;;;;;;;;;;;;;;;24.77;48.21;101302.06;7393991;19;1619;-36
2023/09/10 03:52:19;;;;;;;;;;;;;;;24.72;48.25;101288.19;7394334;19;1581;-37
2023/09/10 03:54:47;;;;;;;;;;;;;;;24.66;48.36;101289.69;7395072;19;1612;-36
2023/09/10 03:57:16;;;;;;;;;;;;;;;24.67;48.13;101302.22;7394935;19;1933;-36
2023/09/10 03:59:47;;;;;;;;;;;;;;;24.66;48.47;101300.50;7396015;19;1759;-36
2023/09/10 04:02:18;;;;;;;;;;;;;;;24.64;48.43;101309.78;7392511;19;1518;-37
2023/09/10 04:04:46;;;;;;;;;;;;;;;24.62;48.25;101293.72;7393631;19;1845;-36
2023/09/10 04:07:15;;;;;;;;;;;;;;;24.60;48.47;101295.72;7392907;19;1859;-36
2023/09/10 04:09:44;;;;;;;;;;;;;;;24.64;48.49;101317.91;7379972;19;1399;-36
2023/09/10 04:12:12;;;;;;;;;;;;;;;24.68;48.48;101305.75;7391170;19;1667;-36
2023/09/10 04:14:40;;;;;;;;;;;;;;;24.65;48.54;101309.63;7395285;19;1238;-36
2023/09/10 04:17:11;;;;;;;;;;;;;;;24.65;48.15;101298.81;7394694;19;1558;-36
2023/09/10 04:19:39;;;;;;;;;;;;;;;24.65;48.38;101295.25;7393920;19;1960;-36
2023/09/10 04:22:08;;;;;;;;;;;;;;;24.97;47.85;101308.94;7391761;19;1835;-36
2023/09/10 04:24:37;;;;;;;;;;;;;;;24.94;47.79;101303.84;7394877;19;1735;-42
2023/09/10 04:27:06;;;;;;;;;;;;;;;24.85;48.08;101310.25;7395424;19;1892;-37
2023/09/10 04:29:34;;;;;;;;;;;;;;;24.76;48.18;101327.44;7394523;19;1673;-36
2023/09/10 04:32:02;;;;;;;;;;;;;;;24.75;48.37;101328.44;7395842;19;1779;-36
2023/09/10 04:34:33;;;;;;;;;;;;;;;24.76;48.44;101327.44;7394971;19;1346;-36
2023/09/10 04:37:02;;;;;;;;;;;;;;;24.73;48.31;101331.31;7394965;19;1557;-36
2023/09/10 04:39:30;;;;;;;;;;;;;;;24.70;48.28;101328.06;7395567;19;1817;-36
2023/09/10 04:41:59;;;;;;;;;;;;;;;24.70;48.56;101328.06;7394981;19;1558;-36
2023/09/10 04:44:27;;;;;;;;;;;;;;;24.70;48.26;101333.47;7394145;19;1450;-36
2023/09/10 04:46:56;;;;;;;;;;;;;;;24.78;48.15;101328.13;7394990;19;1579;-37
2023/09/10 04:49:25;;;;;;;;;;;;;;;24.73;48.36;101336.72;7393492;19;2104;-36
2023/09/10 04:51:56;;;;;;;;;;;;;;;24.79;48.13;101324.41;7394166;19;1941;-37
2023/09/10 04:54:24;;;;;;;;;;;;;;;24.76;48.23;101325.56;7393999;19;1492;-36
2023/09/10 04:56:53;;;;;;;;;;;;;;;24.65;48.41;101325.00;7391313;19;1742;-36
2023/09/10 04:59:22;;;;;;;;;;;;;;;24.68;48.28;101335.50;7395072;19;1566;-36
2023/09/10 05:01:50;;;;;;;;;;;;;;;24.64;48.42;101321.44;7393300;19;1810;-36
2023/09/10 05:04:18;;;;;;;;;;;;;;;24.68;48.29;101320.13;7398745;19;1424;-36
2023/09/10 05:06:46;;;;;;;;;;;;;;;24.68;48.49;101324.69;7398110;19;1758;-36
2023/09/10 05:09:17;;;;;;;;;;;;;;;24.69;48.31;101338.06;7382367;19;1855;-36
2023/09/10 05:11:46;;;;;;;;;;;;;;;24.69;48.41;101337.19;7401333;19;1538;-36
2023/09/10 05:14:14;;;;;;;;;;;;;;;24.72;48.35;101332.31;7400457;19;1231;-36
2023/09/10 05:16:42;;;;;;;;;;;;;;;24.76;48.15;101339.09;7398595;19;1410;-37
2023/09/10 05:19:11;;;;;;;;;;;;;;;24.79;48.14;101332.53;7397887;19;1679;-37
2023/09/10 05:21:39;;;;;;;;;;;;;;;24.77;48.13;101329.97;7399569;19;1375;-36
2023/09/10 05:24:07;;;;;;;;;;;;;;;24.75;48.23;101333.84;7400332;19;1414;-36
2023/09/10 05:26:39;;;;;;;;;;;;;;;24.73;48.42;101344.84;7400590;19;1639;-36
2023/09/10 05:29:07;;;;;;;;;;;;;;;24.75;48.56;101348.22;7398756;19;1851;-36
2023/09/10 05:31:35;;;;;;;;;;;;;;;24.73;48.37;101338.56;7400930;19;1572;-36
2023/09/10 05:34:06;;;;;;;;;;;;;;;24.65;48.40;101336.69;7398272;19;1874;-36
2023/09/10 05:36:34;;;;;;;;;;;;;;;24.64;48.37;101334.13;7395856;19;1854;-36
2023/09/10 05:39:02;;;;;;;;;;;;;;;24.66;48.59;101340.22;7398814;19;1882;-36
2023/09/10 05:41:31;;;;;;;;;;;;;;;24.67;48.52;101344.59;7400243;19;1468;-36
2023/09/10 05:44:03;;;;;;;;;;;;;;;24.69;48.65;101343.47;7399275;19;1499;-36
2023/09/10 05:46:32;;;;;;;;;;;;;;;24.77;48.31;101345.34;7399296;19;1751;-36
2023/09/10 05:49:01;;;;;;;;;;;;;;;24.82;48.04;101343.03;7398804;19;1842;-36
2023/09/10 05:51:29;;;;;;;;;;;;;;;24.81;48.28;101358.41;7398269;19;1688;-37
2023/09/10 05:53:57;;;;;;;;;;;;;;;24.86;48.36;101352.50;7398038;19;1553;-36
2023/09/10 05:56:27;;;;;;;;;;;;;;;24.94;48.14;101352.56;7399167;19;1254;-37
2023/09/10 05:58:55;;;;;;;;;;;;;;;24.98;47.97;101348.50;7399129;19;1544;-37
2023/09/10 06:01:26;;;;;;;;;;;;;;;25.05;47.80;101361.41;7398015;19;1846;-36
2023/09/10 06:03:54;;;;;;;;;;;;;;;25.06;47.51;101355.81;7398073;19;1589;-36
2023/09/10 06:06:23;;;;;;;;;;;;;;;25.12;47.58;101351.63;7398355;19;1670;-37
2023/09/10 06:08:51;;;;;;;;;;;;;;;25.12;47.68;101371.41;7381337;19;1878;-37
2023/09/10 06:11:19;;;;;;;;;;;;;;;25.05;47.90;101359.56;7398374;19;1762;-36
2023/09/10 06:13:48;;;;;;;;;;;;;;;25.08;47.63;101359.22;7398320;19;1764;-36
2023/09/10 06:16:16;;;;;;;;;;;;;;;25.07;47.69;101362.94;7398690;19;1393;-36
2023/09/10 06:18:47;;;;;;;;;;;;;;;24.98;48.02;101370.16;7399587;19;1744;-36
2023/09/10 06:21:15;;;;;;;;;;;;;;;24.94;48.07;101363.38;7399202;19;1738;-36
2023/09/10 06:23:43;;;;;;;;;;;;;;;24.77;48.50;101364.28;7400023;19;1822;-36
2023/09/10 06:26:12;;;;;;;;;;;;;;;24.76;48.60;101393.19;7397233;19;1644;-36
2023/09/10 06:28:41;;;;;;;;;;;;;;;24.68;48.63;101357.13;7396721;19;2237;-36
2023/09/10 06:31:09;;;;;;;;;;;;;;;24.72;48.71;101363.91;7394560;19;1862;-36
2023/09/10 06:33:37;;;;;;;;;;;;;;;24.69;48.80;101364.22;7394814;19;1472;-37
2023/09/10 06:36:09;;;;;;;;;;;;;;;24.65;49.01;101362.84;7395721;19;1482;-36
2023/09/10 06:38:37;;;;;;;;;;;;;;;24.61;48.92;101362.31;7393247;19;1763;-37
2023/09/10 06:41:05;;;;;;;;;;;;;;;24.61;49.04;101368.59;7397604;19;1811;-36
2023/09/10 06:43:34;;;;;;;;;;;;;;;24.64;49.12;101366.56;7394060;19;1397;-36
2023/09/10 06:46:03;;;;;;;;;;;;;;;24.63;49.20;101370.28;7398343;19;1862;-36
2023/09/10 06:48:31;;;;;;;;;;;;;;;24.63;49.11;101375.69;7394884;19;1838;-36
2023/09/10 06:51:00;;;;;;;;;;;;;;;24.63;49.03;101370.28;7397401;19;1589;-36
2023/09/10 06:53:32;;;;;;;;;;;;;;;24.67;49.14;101371.66;7397710;19;1826;-36
2023/09/10 06:56:00;;;;;;;;;;;;;;;24.63;48.90;101371.16;7397793;19;1614;-36
2023/09/10 06:58:28;;;;;;;;;;;;;;;24.64;49.27;101366.56;7398759;19;1739;-37
2023/09/10 07:00:57;;;;;;;;;;;;;;;24.65;49.19;101357.44;7398105;19;1716;-36
2023/09/10 07:03:25;;;;;;;;;;;;;;;24.64;49.30;101363.88;7398442;19;1933;-36
2023/09/10 07:05:53;;;;;;;;;;;;;;;24.62;49.37;101391.06;7396461;19;1866;-37
2023/09/10 07:08:22;;;;;;;;;;;;;;;24.67;49.18;101377.06;7397309;19;1879;-36
2023/09/10 07:10:53;;;;;;;;;;;;;;;24.63;49.22;101354.91;7382743;19;1763;-36
2023/09/10 07:13:21;;;;;;;;;;;;;;;24.64;49.31;101383.63;7397646;19;1847;-36
2023/09/10 07:15:50;;;;;;;;;;;;;;;24.67;49.33;101377.06;7398304;19;1746;-36
2023/09/10 07:18:18;;;;;;;;;;;;;;;24.66;49.32;101387.03;7398217;19;1842;-36
2023/09/10 07:20:46;;;;;;;;;;;;;;;24.65;49.46;101363.72;7396427;19;2619;-36
2023/09/10 07:23:15;;;;;;;;;;;;;;;24.65;49.36;101352.03;7397467;19;2210;-36
2023/09/10 07:25:43;;;;;;;;;;;;;;;24.67;49.40;101366.25;7396166;19;1747;-36
2023/09/10 07:28:14;;;;;;;;;;;;;;;24.71;49.38;101364.91;7396039;19;1847;-36
2023/09/10 07:30:42;;;;;;;;;;;;;;;24.69;49.19;101372.34;7396407;19;1477;-36
2023/09/10 07:33:10;;;;;;;;;;;;;;;24.67;49.28;101377.06;7394154;19;1789;-37
2023/09/10 07:35:39;;;;;;;;;;;;;;;24.70;49.16;101374.91;7396323;19;1721;-36
2023/09/10 07:38:07;;;;;;;;;;;;;;;24.70;49.37;101360.53;7396300;19;1645;-36
2023/09/10 07:40:35;;;;;;;;;;;;;;;24.71;49.37;101378.44;7396868;19;1827;-36
2023/09/10 07:43:03;;;;;;;;;;;;;;;24.70;49.25;101368.66;7397632;19;1608;-36
2023/09/10 07:45:34;;;;;;;;;;;;;;;24.73;49.44;101382.69;7396755;19;1676;-36
2023/09/10 07:48:03;;;;;;;;;;;;;;;24.72;49.48;101385.56;7395248;19;1846;-36
2023/09/10 07:50:31;;;;;;;;;;;;;;;24.68;49.34;101373.38;7396652;19;1519;-36
2023/09/10 07:53:00;;;;;;;;;;;;;;;24.70;49.31;101382.16;7396593;19;1203;-36
2023/09/10 07:55:28;;;;;;;;;;;;;;;24.64;49.35;101361.16;7396122;19;1858;-37
2023/09/10 07:57:56;;;;;;;;;;;;;;;24.70;49.43;101365.94;7396720;19;1956;-36
2023/09/10 08:00:25;;;;;;;;;;;;;;;24.68;49.39;101362.53;7395376;19;1883;-36
2023/09/10 08:02:57;;;;;;;;;;;;;;;24.69;49.39;101364.22;7396601;19;1743;-36
2023/09/10 08:05:25;;;;;;;;;;;;;;;24.70;49.50;101360.53;7397046;19;1759;-36
2023/09/10 08:07:53;;;;;;;;;;;;;;;24.68;49.36;101346.31;7395134;19;1834;-36
2023/09/10 08:10:22;;;;;;;;;;;;;;;24.75;49.33;101363.59;7377693;19;1843;-36
2023/09/10 08:12:50;;;;;;;;;;;;;;;24.71;49.39;101346.84;7393993;19;1754;-36
2023/09/10 08:15:18;;;;;;;;;;;;;;;24.72;49.35;101332.31;7396534;19;1509;-52
2023/09/10 08:17:47;;;;;;;;;;;;;;;24.74;49.56;101353.78;7394946;19;1747;-36
2023/09/10 08:20:18;;;;;;;;;;;;;;;24.72;49.59;101345.81;7395853;19;1665;-36
2023/09/10 08:22:46;;;;;;;;;;;;;;;24.74;49.34;101342.97;7395106;19;1817;-36
2023/09/10 08:25:14;;;;;;;;;;;;;;;24.74;49.36;101348.38;7395741;19;1558;-36
2023/09/10 08:27:42;;;;;;;;;;;;;;;24.71;49.60;101335.16;7393668;19;1837;-37
2023/09/10 08:30:11;;;;;;;;;;;;;;;24.75;49.43;101337.41;7392539;19;1849;-37
2023/09/10 08:32:40;;;;;;;;;;;;;;;24.73;49.51;101327.72;7395705;19;1723;-37
2023/09/10 08:35:09;;;;;;;;;;;;;;;24.75;49.45;101344.66;7396322;19;1649;-36
2023/09/10 08:37:40;;;;;;;;;;;;;;;24.73;49.60;101355.66;7396650;19;1817;-36
2023/09/10 08:40:10;;;;;;;;;;;;;;;24.74;49.41;101346.53;7403277;19;1381;-37
2023/09/10 08:42:41;;;;;;;;;;;;;;;24.75;49.49;101339.25;7402393;19;1872;-36
2023/09/10 08:45:11;;;;;;;;;;;;;;;24.71;49.60;101335.16;7404502;19;1028;-36
2023/09/10 08:47:41;;;;;;;;;;;;;;;24.76;49.47;101343.66;7400436;19;1977;-36
2023/09/10 08:50:11;;;;;;;;;;;;;;;24.78;49.67;101342.47;7400281;19;1843;-36
2023/09/10 08:52:43;;;;;;;;;;;;;;;24.74;49.72;101330.28;7402261;19;1874;-36
2023/09/10 08:55:12;;;;;;;;;;;;;;;24.76;49.54;101328.28;7402152;19;1742;-36
2023/09/10 08:57:41;;;;;;;;;;;;;;;24.76;49.67;101336.38;7401560;19;1841;-36
2023/09/10 09:00:12;;;;;;;;;;;;;;;24.77;49.86;101342.63;7401655;19;1790;-36
2023/09/10 09:02:41;;;;;;;;;;;;;;;24.76;49.58;101338.25;7401012;19;1740;-36
2023/09/10 09:05:09;;;;;;;;;;;;;;;24.76;49.77;101322.03;7402056;19;1838;-37
2023/09/10 09:07:44;;;;;;;;;;;;;;;24.79;49.69;101327.13;7401726;19;1847;-36
2023/09/10 09:10:15;;;;;;;;;;;;;;;24.77;49.70;101339.94;7385398;19;1847;-36
2023/09/10 09:12:44;;;;;;;;;;;;;;;24.73;49.57;101322.31;7400804;19;1469;-36
2023/09/10 09:15:13;;;;;;;;;;;;;;;24.73;49.81;101344.84;7401919;19;1709;-36
2023/09/10 09:17:43;;;;;;;;;;;;;;;24.75;49.77;101332.00;7400074;19;1877;-36
2023/09/10 09:20:13;;;;;;;;;;;;;;;24.76;49.68;101327.44;7401480;19;1901;-37
2023/09/10 09:22:43;;;;;;;;;;;;;;;24.74;49.82;101329.44;7400763;19;1442;-37
2023/09/10 09:25:12;;;;;;;;;;;;;;;24.75;49.78;101306.78;7400820;19;1458;-36
2023/09/10 09:27:43;;;;;;;;;;;;;;;24.79;49.86;101316.31;7400665;19;1578;-36
2023/09/10 09:30:12;;;;;;;;;;;;;;;24.77;49.87;101315.59;7397838;19;1858;-36
2023/09/10 09:32:40;;;;;;;;;;;;;;;24.81;49.79;101325.09;7401105;19;1573;-36
2023/09/10 09:35:11;;;;;;;;;;;;;;;24.79;49.74;101327.97;7400936;19;1732;-37
2023/09/10 09:37:39;;;;;;;;;;;;;;;24.78;49.80;101320.00;7401472;19;1593;-36
2023/09/10 09:40:09;;;;;;;;;;;;;;;24.82;49.77;101310.56;7401052;19;1814;-36
2023/09/10 09:42:37;;;;;;;;;;;;;;;24.80;49.61;101324.25;7400652;19;1525;-36
2023/09/10 09:45:09;;;;;;;;;;;;;;;24.80;49.82;101307.16;7402150;19;1795;-36
2023/09/10 09:47:38;;;;;;;;;;;;;;;24.80;49.62;101315.28;7399925;19;1834;-36
2023/09/10 09:50:06;;;;;;;;;;;;;;;24.77;49.80;101307.47;7398488;19;1845;-36
2023/09/10 09:52:35;;;;;;;;;;;;;;;24.78;50.03;101309.19;7400242;19;1867;-36
2023/09/10 09:55:07;;;;;;;;;;;;;;;24.81;49.67;101308.88;7396244;19;1494;-36
2023/09/10 09:57:38;;;;;;;;;;;;;;;24.78;49.91;101322.72;7397917;19;1406;-37
2023/09/10 10:00:12;;;;;;;;;;;;;;;24.78;49.96;101301.06;7399764;19;1822;-43
2023/09/10 10:02:40;;;;;;;;;;;;;;;24.79;49.86;101302.78;7398226;19;1826;-37
2023/09/10 10:05:09;;;;;;;;;;;;;;;24.84;49.70;101313.09;7400087;19;1732;-36
2023/09/10 10:07:40;;;;;;;;;;;;;;;24.87;49.86;101302.81;7399709;19;1724;-37
2023/09/10 10:10:09;;;;;;;;;;;;;;;24.83;49.62;101290.63;7383629;19;1876;-37
2023/09/10 10:12:38;;;;;;;;;;;;;;;24.82;49.76;101313.25;7398484;19;1501;-36
2023/09/10 10:15:08;;;;;;;;;;;;;;;24.84;49.72;101291.47;7399807;19;1833;-36
2023/09/10 10:17:39;;;;;;;;;;;;;;;24.76;49.91;101271.47;7398293;19;1930;-37
2023/09/10 10:20:09;;;;;;;;;;;;;;;24.79;49.82;101273.88;7398873;19;1383;-36
2023/09/10 10:22:38;;;;;;;;;;;;;;;24.84;50.05;101292.31;7398745;19;1743;-36
2023/09/10 10:25:07;;;;;;;;;;;;;;;24.84;49.87;101319.34;7397166;19;1751;-36
2023/09/10 10:27:36;;;;;;;;;;;;;;;24.81;50.00;101289.94;7400182;19;1810;-36
2023/09/10 10:30:05;;;;;;;;;;;;;;;24.86;49.67;101289.44;7398499;19;2137;-36
2023/09/10 10:32:36;;;;;;;;;;;;;;;24.83;49.86;101304.16;7398435;19;1779;-36
2023/09/10 10:35:09;;;;;;;;;;;;;;;24.86;49.90;101284.03;7398748;19;1529;-36
2023/09/10 10:37:48;;;;;;;;;;;;;;;24.87;49.87;101288.41;7399248;19;1821;-36
2023/09/10 10:40:19;;;;;;;;;;;;;;;24.87;49.98;101289.28;7398783;19;1589;-36
2023/09/10 10:42:51;;;;;;;;;;;;;;;24.84;49.96;101269.81;7396277;19;1604;-37
2023/09/10 10:45:20;;;;;;;;;;;;;;;24.82;50.07;101291.63;7398221;19;2084;-36
2023/09/10 10:47:49;;;;;;;;;;;;;;;24.83;49.99;101269.00;7397333;19;1870;-36
2023/09/10 10:50:23;;;;;;;;;;;;;;;24.88;49.96;101282.03;7397035;19;1830;-36
2023/09/10 10:52:57;;;;;;;;;;;;;;;24.84;49.88;101270.66;7397368;19;1870;-36
2023/09/10 10:55:26;;;;;;;;;;;;;;;24.83;50.03;101269.00;7397181;19;1880;-36
2023/09/10 10:57:54;;;;;;;;;;;;;;;24.88;49.98;101261.22;7398859;19;1795;-36
2023/09/10 11:00:23;;;;;;;;;;;;;;;24.85;50.04;101266.97;7395787;19;1722;-36
2023/09/10 11:03:09;;;;;;;;;;;;;;;24.88;49.90;101272.03;7396302;19;1748;-36
2023/09/10 11:05:52;;;;;;;;;;;;;;;24.86;49.91;101252.41;7397269;19;1750;-36
2023/09/10 11:08:33;;;;;;;;;;;;;;;24.90;49.82;101258.34;7395625;19;1890;-36
2023/09/10 11:11:02;;;;;;;;;;;;;;;24.89;49.88;101256.66;7381104;19;1848;-36
2023/09/10 11:13:30;;;;;;;;;;;;;;;24.86;50.14;101267.81;7396089;19;1826;-36
2023/09/10 11:16:16;;;;;;;;;;;;;;;24.83;50.12;101255.47;7396669;19;1663;-36
2023/09/10 11:18:45;;;;;;;;;;;;;;;24.91;49.94;101243.81;7397560;19;1763;-36
2023/09/10 11:21:13;;;;;;;;;;;;;;;24.89;49.92;101240.41;7397888;19;1569;-36
2023/09/10 11:24:04;;;;;;;;;;;;;;;24.89;49.98;101219.63;7397740;19;1712;-36
2023/09/10 11:26:33;;;;;;;;;;;;;;;24.88;49.90;101244.97;7396732;19;2531;-36
2023/09/10 11:29:02;;;;;;;;;;;;;;;24.87;50.01;101243.31;7396938;19;1713;-36
2023/09/10 11:31:42;;;;;;;;;;;;;;;24.83;50.35;101231.13;7393378;19;1853;-36
2023/09/10 11:34:27;;;;;;;;;;;;;;;24.83;50.14;101241.94;7393730;19;1582;-36
2023/09/10 11:36:58;;;;;;;;;;;;;;;24.84;50.41;101240.06;7395137;19;1995;-36
2023/09/10 11:39:29;;;;;;;;;;;;;;;24.87;49.97;101220.78;7395418;19;1597;-37
2023/09/10 11:41:58;;;;;;;;;;;;;;;24.86;50.17;101224.53;7394706;19;1500;-36
2023/09/10 11:44:26;;;;;;;;;;;;;;;24.83;50.16;101214.88;7396753;19;1632;-36
2023/09/10 11:46:55;;;;;;;;;;;;;;;24.79;50.17;101208.94;7395506;19;1577;-37
2023/09/10 11:49:24;;;;;;;;;;;;;;;24.82;50.16;101232.13;7395681;19;1490;-36
2023/09/10 11:51:53;;;;;;;;;;;;;;;24.84;50.12;101215.72;7395096;19;1627;-36
2023/09/10 11:54:22;;;;;;;;;;;;;;;24.85;50.20;101202.03;7395663;19;1652;-36
2023/09/10 11:56:55;;;;;;;;;;;;;;;24.90;49.96;101215.06;7395195;19;1602;-36
2023/09/10 11:59:25;;;;;;;;;;;;;;;24.90;50.07;101210.50;7396264;19;1739;-36
2023/09/10 12:01:55;;;;;;;;;;;;;;;24.91;50.24;101216.75;7393981;19;1874;-37
2023/09/10 12:04:28;;;;;;;;;;;;;;;24.90;50.07;101215.91;7395751;19;1798;-37
2023/09/10 12:06:56;;;;;;;;;;;;;;;24.83;50.16;101195.09;7395047;19;1417;-37
2023/09/10 12:09:25;;;;;;;;;;;;;;;24.91;50.14;101212.22;7394499;19;1830;-37
2023/09/10 12:11:56;;;;;;;;;;;;;;;24.86;50.33;101209.13;7377842;19;1858;-37
2023/09/10 12:14:25;;;;;;;;;;;;;;;24.85;50.39;101209.28;7394432;19;1854;-37
2023/09/10 12:16:54;;;;;;;;;;;;;;;24.85;50.18;101193.94;7393581;19;1367;-37
2023/09/10 12:19:22;;;;;;;;;;;;;;;24.88;50.06;101214.38;7395742;19;1624;-37
2023/09/10 12:21:50;;;;;;;;;;;;;;;24.84;50.21;101213.84;7395354;19;1389;-37
2023/09/10 12:24:19;;;;;;;;;;;;;;;24.84;50.24;101213.03;7395123;19;1526;-37
2023/09/10 12:26:47;;;;;;;;;;;;;;;24.82;50.40;101215.88;7395662;19;1739;-37
2023/09/10 12:29:18;;;;;;;;;;;;;;;24.84;50.44;101207.63;7393892;19;1577;-37
2023/09/10 12:31:46;;;;;;;;;;;;;;;24.85;50.25;101193.94;7393275;19;1846;-37
2023/09/10 12:34:15;;;;;;;;;;;;;;;24.86;50.10;101205.59;7394135;19;1815;-37
2023/09/10 12:36:45;;;;;;;;;;;;;;;24.85;50.19;101185.81;7393808;19;1573;-37
2023/09/10 12:39:19;;;;;;;;;;;;;;;24.89;50.24;101191.72;7393522;19;1421;-37
2023/09/10 12:41:50;;;;;;;;;;;;;;;24.86;50.19;101184.78;7394448;19;1441;-37
2023/09/10 12:44:21;;;;;;;;;;;;;;;24.88;50.02;101188.16;7393035;19;1398;-37
2023/09/10 12:46:50;;;;;;;;;;;;;;;24.91;50.17;101208.63;7394040;19;1535;-37
2023/09/10 12:49:18;;;;;;;;;;;;;;;24.88;50.23;101204.41;7394435;19;1159;-37
2023/09/10 12:51:47;;;;;;;;;;;;;;;24.84;50.48;101200.34;7392538;19;1833;-37
2023/09/10 12:54:16;;;;;;;;;;;;;;;24.83;50.38;101187.84;7392859;19;1521;-37
2023/09/10 12:56:44;;;;;;;;;;;;;;;24.83;50.20;101185.13;7393866;19;1810;-37
2023/09/10 12:59:13;;;;;;;;;;;;;;;24.86;50.24;101186.66;7395120;19;1613;-37